sensor_id;sensor_type;location;lat;lon;timestamp;temperature;humidity
23681;DHT22;62915;50.832;4.462;2024-01-30T00:01:46;12.70;99.90
23681;DHT22;62915;50.832;4.462;2024-01-30T00:04:13;12.70;99.90
23681;DHT22;62915;50.832;4.462;2024-01-30T00:06:45;12.70;99.90
23681;DHT22;62915;50.832;4.462;2024-01-30T00:09:15;12.70;99.90
23681;DHT22;62915;50.832;4.462;2024-01-30T00:11:44;12.70;99.90
23681;DHT22;62915;50.832;4.462;2024-01-30T00:14:13;12.50;99.90
23681;DHT22;62915;50.832;4.462;2024-01-30T00:16:43;12.40;99.90
23681;DHT22;62915;50.832;4.462;2024-01-30T00:19:13;12.40;99.90
23681;DHT22;62915;50.832;4.462;2024-01-30T00:21:40;12.40;99.90
23681;DHT22;62915;50.832;4.462;2024-01-30T00:24:07;12.50;99.90
23681;DHT22;62915;50.832;4.462;2024-01-30T00:26:34;12.60;99.90
23681;DHT22;62915;50.832;4.462;2024-01-30T00:29:00;12.60;99.90
23681;DHT22;62915;50.832;4.462;2024-01-30T00:31:29;12.60;99.90
23681;DHT22;62915;50.832;4.462;2024-01-30T00:33:55;12.60;99.90
23681;DHT22;62915;50.832;4.462;2024-01-30T00:36:26;12.60;99.90
23681;DHT22;62915;50.832;4.462;2024-01-30T00:38:58;12.60;99.90
23681;DHT22;62915;50.832;4.462;2024-01-30T00:41:25;12.60;99.90
23681;DHT22;62915;50.832;4.462;2024-01-30T00:43:52;12.60;99.90
23681;DHT22;62915;50.832;4.462;2024-01-30T00:46:19;12.60;99.90
23681;DHT22;62915;50.832;4.462;2024-01-30T00:48:46;12.70;99.90
23681;DHT22;62915;50.832;4.462;2024-01-30T00:51:12;12.70;99.90
23681;DHT22;62915;50.832;4.462;2024-01-30T00:53:42;12.70;99.90
23681;DHT22;62915;50.832;4.462;2024-01-30T00:56:11;12.60;99.90
23681;DHT22;62915;50.832;4.462;2024-01-30T00:58:40;12.60;99.90
23681;DHT22;62915;50.832;4.462;2024-01-30T01:01:07;12.70;99.90
23681;DHT22;62915;50.832;4.462;2024-01-30T01:03:34;12.70;99.90
23681;DHT22;62915;50.832;4.462;2024-01-30T01:06:01;12.70;99.90
23681;DHT22;62915;50.832;4.462;2024-01-30T01:08:30;12.70;99.90
23681;DHT22;62915;50.832;4.462;2024-01-30T01:10:57;12.70;99.90
23681;DHT22;62915;50.832;4.462;2024-01-30T01:13:24;12.70;99.90
23681;DHT22;62915;50.832;4.462;2024-01-30T01:15:51;12.70;99.90
23681;DHT22;62915;50.832;4.462;2024-01-30T01:18:19;12.70;99.90
23681;DHT22;62915;50.832;4.462;2024-01-30T01:20:47;12.70;99.90
23681;DHT22;62915;50.832;4.462;2024-01-30T01:23:20;12.60;99.90
23681;DHT22;62915;50.832;4.462;2024-01-30T01:25:50;12.80;99.90
23681;DHT22;62915;50.832;4.462;2024-01-30T01:28:19;12.80;99.90
23681;DHT22;62915;50.832;4.462;2024-01-30T01:30:47;12.80;99.90
23681;DHT22;62915;50.832;4.462;2024-01-30T01:33:15;12.80;99.90
23681;DHT22;62915;50.832;4.462;2024-01-30T01:35:43;12.90;99.90
23681;DHT22;62915;50.832;4.462;2024-01-30T01:38:12;12.80;99.90
23681;DHT22;62915;50.832;4.462;2024-01-30T01:40:41;12.80;99.90
23681;DHT22;62915;50.832;4.462;2024-01-30T01:43:12;12.80;99.90
23681;DHT22;62915;50.832;4.462;2024-01-30T01:45:43;12.80;99.90
23681;DHT22;62915;50.832;4.462;2024-01-30T01:48:13;12.80;99.90
23681;DHT22;62915;50.832;4.462;2024-01-30T01:50:42;12.90;99.90
23681;DHT22;62915;50.832;4.462;2024-01-30T01:53:09;12.90;99.90
23681;DHT22;62915;50.832;4.462;2024-01-30T01:55:37;12.90;99.90
23681;DHT22;62915;50.832;4.462;2024-01-30T01:58:04;12.80;99.90
23681;DHT22;62915;50.832;4.462;2024-01-30T02:00:33;12.90;99.90
23681;DHT22;62915;50.832;4.462;2024-01-30T02:03:02;12.90;99.90
23681;DHT22;62915;50.832;4.462;2024-01-30T02:05:36;12.90;99.90
23681;DHT22;62915;50.832;4.462;2024-01-30T02:08:06;12.90;99.90
23681;DHT22;62915;50.832;4.462;2024-01-30T02:10:37;12.80;99.90
23681;DHT22;62915;50.832;4.462;2024-01-30T02:13:06;12.90;99.90
23681;DHT22;62915;50.832;4.462;2024-01-30T02:15:35;12.90;99.90
23681;DHT22;62915;50.832;4.462;2024-01-30T02:18:05;12.90;99.90
23681;DHT22;62915;50.832;4.462;2024-01-30T02:20:36;12.90;99.90
23681;DHT22;62915;50.832;4.462;2024-01-30T02:23:09;12.80;99.90
23681;DHT22;62915;50.832;4.462;2024-01-30T02:25:42;12.90;99.90
23681;DHT22;62915;50.832;4.462;2024-01-30T02:28:15;12.80;99.90
23681;DHT22;62915;50.832;4.462;2024-01-30T02:30:46;12.80;99.90
23681;DHT22;62915;50.832;4.462;2024-01-30T02:33:22;12.80;99.90
23681;DHT22;62915;50.832;4.462;2024-01-30T02:35:52;12.80;99.90
23681;DHT22;62915;50.832;4.462;2024-01-30T02:38:23;12.80;99.90
23681;DHT22;62915;50.832;4.462;2024-01-30T02:40:55;12.80;99.90
23681;DHT22;62915;50.832;4.462;2024-01-30T02:43:27;12.90;99.90
23681;DHT22;62915;50.832;4.462;2024-01-30T02:46:00;12.90;99.90
23681;DHT22;62915;50.832;4.462;2024-01-30T02:48:29;12.90;99.90
23681;DHT22;62915;50.832;4.462;2024-01-30T02:51:00;13.00;99.90
23681;DHT22;62915;50.832;4.462;2024-01-30T02:53:30;13.00;99.90
23681;DHT22;62915;50.832;4.462;2024-01-30T02:56:11;12.90;99.90
23681;DHT22;62915;50.832;4.462;2024-01-30T02:58:45;12.80;99.90
23681;DHT22;62915;50.832;4.462;2024-01-30T03:01:14;12.80;99.90
23681;DHT22;62915;50.832;4.462;2024-01-30T03:03:44;12.70;99.90
23681;DHT22;62915;50.832;4.462;2024-01-30T03:06:12;12.70;99.90
23681;DHT22;62915;50.832;4.462;2024-01-30T03:08:46;12.90;99.90
23681;DHT22;62915;50.832;4.462;2024-01-30T03:11:15;13.00;99.90
23681;DHT22;62915;50.832;4.462;2024-01-30T03:13:44;12.90;99.90
23681;DHT22;62915;50.832;4.462;2024-01-30T03:16:14;12.90;99.90
23681;DHT22;62915;50.832;4.462;2024-01-30T03:18:45;12.70;99.90
23681;DHT22;62915;50.832;4.462;2024-01-30T03:21:16;12.80;99.90
23681;DHT22;62915;50.832;4.462;2024-01-30T03:23:45;12.90;99.90
23681;DHT22;62915;50.832;4.462;2024-01-30T03:26:14;12.80;99.90
23681;DHT22;62915;50.832;4.462;2024-01-30T03:28:42;12.80;99.90
23681;DHT22;62915;50.832;4.462;2024-01-30T03:31:18;12.80;99.90
23681;DHT22;62915;50.832;4.462;2024-01-30T03:33:48;12.80;99.90
23681;DHT22;62915;50.832;4.462;2024-01-30T03:36:18;12.80;99.90
23681;DHT22;62915;50.832;4.462;2024-01-30T03:38:47;12.80;99.90
23681;DHT22;62915;50.832;4.462;2024-01-30T03:41:17;12.70;99.90
23681;DHT22;62915;50.832;4.462;2024-01-30T03:43:46;12.70;99.90
23681;DHT22;62915;50.832;4.462;2024-01-30T03:46:17;12.70;99.90
23681;DHT22;62915;50.832;4.462;2024-01-30T03:48:45;12.60;99.90
23681;DHT22;62915;50.832;4.462;2024-01-30T03:51:11;12.70;99.90
23681;DHT22;62915;50.832;4.462;2024-01-30T03:53:41;12.70;99.90
23681;DHT22;62915;50.832;4.462;2024-01-30T03:56:07;12.70;99.90
23681;DHT22;62915;50.832;4.462;2024-01-30T03:58:33;12.70;99.90
23681;DHT22;62915;50.832;4.462;2024-01-30T04:00:59;12.50;99.90
23681;DHT22;62915;50.832;4.462;2024-01-30T04:03:25;12.50;99.90
23681;DHT22;62915;50.832;4.462;2024-01-30T04:05:54;12.40;99.90
23681;DHT22;62915;50.832;4.462;2024-01-30T04:08:19;12.40;99.90
23681;DHT22;62915;50.832;4.462;2024-01-30T04:10:50;12.50;99.90
23681;DHT22;62915;50.832;4.462;2024-01-30T04:13:16;12.40;99.90
23681;DHT22;62915;50.832;4.462;2024-01-30T04:15:42;12.40;99.90
23681;DHT22;62915;50.832;4.462;2024-01-30T04:18:08;12.40;99.90
23681;DHT22;62915;50.832;4.462;2024-01-30T04:20:33;12.40;99.90
23681;DHT22;62915;50.832;4.462;2024-01-30T04:22:59;12.50;99.90
23681;DHT22;62915;50.832;4.462;2024-01-30T04:25:25;12.50;99.90
23681;DHT22;62915;50.832;4.462;2024-01-30T04:27:50;12.40;99.90
23681;DHT22;62915;50.832;4.462;2024-01-30T04:30:16;12.40;99.90
23681;DHT22;62915;50.832;4.462;2024-01-30T04:32:43;12.50;99.90
23681;DHT22;62915;50.832;4.462;2024-01-30T04:35:09;12.50;99.90
23681;DHT22;62915;50.832;4.462;2024-01-30T04:37:35;12.50;99.90
23681;DHT22;62915;50.832;4.462;2024-01-30T04:40:01;12.40;99.90
23681;DHT22;62915;50.832;4.462;2024-01-30T04:42:28;12.50;99.90
23681;DHT22;62915;50.832;4.462;2024-01-30T04:44:54;12.50;99.90
23681;DHT22;62915;50.832;4.462;2024-01-30T04:47:20;12.60;99.90
23681;DHT22;62915;50.832;4.462;2024-01-30T04:49:45;12.60;99.90
23681;DHT22;62915;50.832;4.462;2024-01-30T04:52:11;12.60;99.90
23681;DHT22;62915;50.832;4.462;2024-01-30T04:54:37;12.50;99.90
23681;DHT22;62915;50.832;4.462;2024-01-30T04:57:03;12.40;99.90
23681;DHT22;62915;50.832;4.462;2024-01-30T04:59:28;12.50;99.90
23681;DHT22;62915;50.832;4.462;2024-01-30T05:01:54;12.50;99.90
23681;DHT22;62915;50.832;4.462;2024-01-30T05:04:20;12.50;99.90
23681;DHT22;62915;50.832;4.462;2024-01-30T05:06:46;12.50;99.90
23681;DHT22;62915;50.832;4.462;2024-01-30T05:09:12;12.50;99.90
23681;DHT22;62915;50.832;4.462;2024-01-30T05:11:41;12.60;99.90
23681;DHT22;62915;50.832;4.462;2024-01-30T05:14:07;12.50;99.90
23681;DHT22;62915;50.832;4.462;2024-01-30T05:16:37;12.60;99.90
23681;DHT22;62915;50.832;4.462;2024-01-30T05:19:03;12.70;99.90
23681;DHT22;62915;50.832;4.462;2024-01-30T05:21:28;12.60;99.90
23681;DHT22;62915;50.832;4.462;2024-01-30T05:23:54;12.50;99.90
23681;DHT22;62915;50.832;4.462;2024-01-30T05:26:20;12.50;99.90
23681;DHT22;62915;50.832;4.462;2024-01-30T05:28:45;12.60;99.90
23681;DHT22;62915;50.832;4.462;2024-01-30T05:31:11;12.50;99.90
23681;DHT22;62915;50.832;4.462;2024-01-30T05:33:37;12.50;99.90
23681;DHT22;62915;50.832;4.462;2024-01-30T05:36:03;12.50;99.90
23681;DHT22;62915;50.832;4.462;2024-01-30T05:38:29;12.50;99.90
23681;DHT22;62915;50.832;4.462;2024-01-30T05:40:56;12.50;99.90
23681;DHT22;62915;50.832;4.462;2024-01-30T05:43:23;12.40;99.90
23681;DHT22;62915;50.832;4.462;2024-01-30T05:45:49;12.40;99.90
23681;DHT22;62915;50.832;4.462;2024-01-30T05:48:17;12.40;99.90
23681;DHT22;62915;50.832;4.462;2024-01-30T05:50:44;12.40;99.90
23681;DHT22;62915;50.832;4.462;2024-01-30T05:53:12;12.40;99.90
23681;DHT22;62915;50.832;4.462;2024-01-30T05:55:41;12.30;99.90
23681;DHT22;62915;50.832;4.462;2024-01-30T05:58:10;12.30;99.90
23681;DHT22;62915;50.832;4.462;2024-01-30T06:00:39;12.40;99.90
23681;DHT22;62915;50.832;4.462;2024-01-30T06:03:10;12.40;99.90
23681;DHT22;62915;50.832;4.462;2024-01-30T06:05:38;12.50;99.90
23681;DHT22;62915;50.832;4.462;2024-01-30T06:08:07;12.40;99.90
23681;DHT22;62915;50.832;4.462;2024-01-30T06:10:34;12.50;99.90
23681;DHT22;62915;50.832;4.462;2024-01-30T06:13:00;12.40;99.90
23681;DHT22;62915;50.832;4.462;2024-01-30T06:15:26;12.40;99.90
23681;DHT22;62915;50.832;4.462;2024-01-30T06:17:52;12.20;99.90
23681;DHT22;62915;50.832;4.462;2024-01-30T06:20:18;12.20;99.90
23681;DHT22;62915;50.832;4.462;2024-01-30T06:22:44;12.20;99.90
23681;DHT22;62915;50.832;4.462;2024-01-30T06:25:13;12.30;99.90
23681;DHT22;62915;50.832;4.462;2024-01-30T06:27:39;12.40;99.90
23681;DHT22;62915;50.832;4.462;2024-01-30T06:30:06;12.30;99.90
23681;DHT22;62915;50.832;4.462;2024-01-30T06:32:32;12.30;99.90
23681;DHT22;62915;50.832;4.462;2024-01-30T06:35:00;12.40;99.90
23681;DHT22;62915;50.832;4.462;2024-01-30T06:37:27;12.30;99.90
23681;DHT22;62915;50.832;4.462;2024-01-30T06:39:53;12.30;99.90
23681;DHT22;62915;50.832;4.462;2024-01-30T06:42:19;12.30;99.90
23681;DHT22;62915;50.832;4.462;2024-01-30T06:44:45;12.30;99.90
23681;DHT22;62915;50.832;4.462;2024-01-30T06:47:11;12.40;99.90
23681;DHT22;62915;50.832;4.462;2024-01-30T06:49:37;12.40;99.90
23681;DHT22;62915;50.832;4.462;2024-01-30T06:52:05;12.40;99.90
23681;DHT22;62915;50.832;4.462;2024-01-30T06:54:36;12.30;99.90
23681;DHT22;62915;50.832;4.462;2024-01-30T06:57:02;12.30;99.90
23681;DHT22;62915;50.832;4.462;2024-01-30T06:59:28;12.30;99.90
23681;DHT22;62915;50.832;4.462;2024-01-30T07:01:54;12.40;99.90
23681;DHT22;62915;50.832;4.462;2024-01-30T07:04:20;12.40;99.90
23681;DHT22;62915;50.832;4.462;2024-01-30T07:06:46;12.40;99.90
23681;DHT22;62915;50.832;4.462;2024-01-30T07:09:13;12.40;99.90
23681;DHT22;62915;50.832;4.462;2024-01-30T07:11:39;12.30;99.90
23681;DHT22;62915;50.832;4.462;2024-01-30T07:14:05;12.20;99.90
23681;DHT22;62915;50.832;4.462;2024-01-30T07:16:32;12.30;99.90
23681;DHT22;62915;50.832;4.462;2024-01-30T07:18:58;12.20;99.90
23681;DHT22;62915;50.832;4.462;2024-01-30T07:21:24;12.30;99.90
23681;DHT22;62915;50.832;4.462;2024-01-30T07:23:55;12.20;99.90
23681;DHT22;62915;50.832;4.462;2024-01-30T07:26:21;12.20;99.90
23681;DHT22;62915;50.832;4.462;2024-01-30T07:28:48;12.20;99.90
23681;DHT22;62915;50.832;4.462;2024-01-30T07:31:15;12.20;99.90
23681;DHT22;62915;50.832;4.462;2024-01-30T07:33:43;12.40;99.90
23681;DHT22;62915;50.832;4.462;2024-01-30T07:36:09;12.40;99.90
23681;DHT22;62915;50.832;4.462;2024-01-30T07:38:36;12.40;99.90
23681;DHT22;62915;50.832;4.462;2024-01-30T07:41:02;12.30;99.90
23681;DHT22;62915;50.832;4.462;2024-01-30T07:43:28;12.20;99.90
23681;DHT22;62915;50.832;4.462;2024-01-30T07:45:56;12.20;99.90
23681;DHT22;62915;50.832;4.462;2024-01-30T07:48:26;12.20;99.90
23681;DHT22;62915;50.832;4.462;2024-01-30T07:50:55;12.30;99.90
23681;DHT22;62915;50.832;4.462;2024-01-30T07:53:25;12.30;99.90
23681;DHT22;62915;50.832;4.462;2024-01-30T07:55:52;12.30;99.90
23681;DHT22;62915;50.832;4.462;2024-01-30T07:58:18;12.40;99.90
23681;DHT22;62915;50.832;4.462;2024-01-30T08:00:45;12.50;99.90
23681;DHT22;62915;50.832;4.462;2024-01-30T08:03:11;12.40;99.90
23681;DHT22;62915;50.832;4.462;2024-01-30T08:05:37;12.50;99.90
23681;DHT22;62915;50.832;4.462;2024-01-30T08:08:04;12.40;99.90
23681;DHT22;62915;50.832;4.462;2024-01-30T08:10:30;12.60;99.90
23681;DHT22;62915;50.832;4.462;2024-01-30T08:12:56;12.50;99.90
23681;DHT22;62915;50.832;4.462;2024-01-30T08:15:22;12.70;99.90
23681;DHT22;62915;50.832;4.462;2024-01-30T08:17:48;12.60;99.90
23681;DHT22;62915;50.832;4.462;2024-01-30T08:20:15;12.50;99.90
23681;DHT22;62915;50.832;4.462;2024-01-30T08:22:43;12.60;99.90
23681;DHT22;62915;50.832;4.462;2024-01-30T08:25:09;12.50;99.90
23681;DHT22;62915;50.832;4.462;2024-01-30T08:27:35;12.40;99.90
23681;DHT22;62915;50.832;4.462;2024-01-30T08:30:05;12.30;99.90
23681;DHT22;62915;50.832;4.462;2024-01-30T08:32:31;12.50;99.90
23681;DHT22;62915;50.832;4.462;2024-01-30T08:34:59;12.60;99.90
23681;DHT22;62915;50.832;4.462;2024-01-30T08:37:25;12.70;99.90
23681;DHT22;62915;50.832;4.462;2024-01-30T08:39:51;12.60;99.90
23681;DHT22;62915;50.832;4.462;2024-01-30T08:42:18;12.60;99.90
23681;DHT22;62915;50.832;4.462;2024-01-30T08:44:48;12.60;99.90
23681;DHT22;62915;50.832;4.462;2024-01-30T08:47:15;12.60;99.90
23681;DHT22;62915;50.832;4.462;2024-01-30T08:49:43;12.60;99.90
23681;DHT22;62915;50.832;4.462;2024-01-30T08:52:10;12.70;99.90
23681;DHT22;62915;50.832;4.462;2024-01-30T08:54:36;12.60;99.90
23681;DHT22;62915;50.832;4.462;2024-01-30T08:57:02;12.60;99.90
23681;DHT22;62915;50.832;4.462;2024-01-30T08:59:28;12.60;99.90
23681;DHT22;62915;50.832;4.462;2024-01-30T09:01:53;12.70;99.90
23681;DHT22;62915;50.832;4.462;2024-01-30T09:04:23;12.80;99.90
23681;DHT22;62915;50.832;4.462;2024-01-30T09:06:49;12.80;99.90
23681;DHT22;62915;50.832;4.462;2024-01-30T09:09:15;12.80;99.90
23681;DHT22;62915;50.832;4.462;2024-01-30T09:11:41;12.70;99.90
23681;DHT22;62915;50.832;4.462;2024-01-30T09:14:07;12.70;99.90
23681;DHT22;62915;50.832;4.462;2024-01-30T09:16:35;12.60;99.90
23681;DHT22;62915;50.832;4.462;2024-01-30T09:19:01;12.60;99.90
23681;DHT22;62915;50.832;4.462;2024-01-30T09:21:28;12.70;99.90
23681;DHT22;62915;50.832;4.462;2024-01-30T09:23:55;12.70;99.90
23681;DHT22;62915;50.832;4.462;2024-01-30T09:26:26;12.90;99.90
23681;DHT22;62915;50.832;4.462;2024-01-30T09:28:53;12.80;99.90
23681;DHT22;62915;50.832;4.462;2024-01-30T09:31:19;12.90;99.90
23681;DHT22;62915;50.832;4.462;2024-01-30T09:33:44;12.80;99.90
23681;DHT22;62915;50.832;4.462;2024-01-30T09:36:13;12.70;99.90
23681;DHT22;62915;50.832;4.462;2024-01-30T09:38:44;12.80;99.90
23681;DHT22;62915;50.832;4.462;2024-01-30T09:41:10;12.80;99.90
23681;DHT22;62915;50.832;4.462;2024-01-30T09:43:39;12.80;99.90
23681;DHT22;62915;50.832;4.462;2024-01-30T09:46:11;12.80;99.90
23681;DHT22;62915;50.832;4.462;2024-01-30T09:48:41;12.80;99.90
23681;DHT22;62915;50.832;4.462;2024-01-30T09:51:10;12.70;99.90
23681;DHT22;62915;50.832;4.462;2024-01-30T09:53:37;12.80;99.90
23681;DHT22;62915;50.832;4.462;2024-01-30T09:56:05;12.70;99.90
23681;DHT22;62915;50.832;4.462;2024-01-30T09:58:31;12.80;99.90
23681;DHT22;62915;50.832;4.462;2024-01-30T10:00:57;12.70;99.90
23681;DHT22;62915;50.832;4.462;2024-01-30T10:03:23;12.80;99.90
23681;DHT22;62915;50.832;4.462;2024-01-30T10:05:52;12.80;99.90
23681;DHT22;62915;50.832;4.462;2024-01-30T10:08:20;12.60;99.90
23681;DHT22;62915;50.832;4.462;2024-01-30T10:10:49;12.50;99.90
23681;DHT22;62915;50.832;4.462;2024-01-30T10:13:18;12.60;99.90
23681;DHT22;62915;50.832;4.462;2024-01-30T10:15:44;12.60;99.90
23681;DHT22;62915;50.832;4.462;2024-01-30T10:18:11;12.60;99.90
23681;DHT22;62915;50.832;4.462;2024-01-30T10:20:37;12.40;99.90
23681;DHT22;62915;50.832;4.462;2024-01-30T10:23:03;12.40;99.90
23681;DHT22;62915;50.832;4.462;2024-01-30T10:25:30;12.50;99.90
23681;DHT22;62915;50.832;4.462;2024-01-30T10:27:59;12.60;99.90
23681;DHT22;62915;50.832;4.462;2024-01-30T10:30:27;12.70;99.90
23681;DHT22;62915;50.832;4.462;2024-01-30T10:32:53;12.60;99.90
23681;DHT22;62915;50.832;4.462;2024-01-30T10:35:19;12.60;99.90
23681;DHT22;62915;50.832;4.462;2024-01-30T10:37:47;12.60;99.90
23681;DHT22;62915;50.832;4.462;2024-01-30T10:40:14;12.60;99.90
23681;DHT22;62915;50.832;4.462;2024-01-30T10:43:01;12.60;99.90
23681;DHT22;62915;50.832;4.462;2024-01-30T10:45:28;12.50;99.90
23681;DHT22;62915;50.832;4.462;2024-01-30T10:47:57;12.50;99.90
23681;DHT22;62915;50.832;4.462;2024-01-30T10:50:25;12.50;99.90
23681;DHT22;62915;50.832;4.462;2024-01-30T10:52:52;12.50;99.90
23681;DHT22;62915;50.832;4.462;2024-01-30T10:55:19;12.50;99.90
23681;DHT22;62915;50.832;4.462;2024-01-30T10:57:47;12.40;99.90
23681;DHT22;62915;50.832;4.462;2024-01-30T11:00:14;12.50;99.90
23681;DHT22;62915;50.832;4.462;2024-01-30T11:02:45;12.50;99.90
23681;DHT22;62915;50.832;4.462;2024-01-30T11:05:11;12.50;99.90
23681;DHT22;62915;50.832;4.462;2024-01-30T11:07:39;12.40;99.90
23681;DHT22;62915;50.832;4.462;2024-01-30T11:10:06;12.30;99.90
23681;DHT22;62915;50.832;4.462;2024-01-30T11:12:38;12.20;99.90
23681;DHT22;62915;50.832;4.462;2024-01-30T11:15:11;12.20;99.90
23681;DHT22;62915;50.832;4.462;2024-01-30T11:17:42;12.20;99.90
23681;DHT22;62915;50.832;4.462;2024-01-30T11:20:16;12.20;99.90
23681;DHT22;62915;50.832;4.462;2024-01-30T11:22:44;12.20;99.90
23681;DHT22;62915;50.832;4.462;2024-01-30T11:25:14;12.30;99.90
23681;DHT22;62915;50.832;4.462;2024-01-30T11:27:41;12.30;99.90
23681;DHT22;62915;50.832;4.462;2024-01-30T11:30:08;12.30;99.90
23681;DHT22;62915;50.832;4.462;2024-01-30T11:32:35;12.40;99.90
23681;DHT22;62915;50.832;4.462;2024-01-30T11:35:04;12.40;99.90
23681;DHT22;62915;50.832;4.462;2024-01-30T11:37:33;12.20;99.90
23681;DHT22;62915;50.832;4.462;2024-01-30T11:40:03;12.30;99.90
23681;DHT22;62915;50.832;4.462;2024-01-30T11:42:30;12.30;99.90
23681;DHT22;62915;50.832;4.462;2024-01-30T11:44:56;12.30;99.90
23681;DHT22;62915;50.832;4.462;2024-01-30T11:47:25;12.10;99.90
23681;DHT22;62915;50.832;4.462;2024-01-30T11:49:52;12.10;99.90
23681;DHT22;62915;50.832;4.462;2024-01-30T11:52:22;12.10;99.90
23681;DHT22;62915;50.832;4.462;2024-01-30T11:54:50;12.10;99.90
23681;DHT22;62915;50.832;4.462;2024-01-30T11:57:16;12.10;99.90
23681;DHT22;62915;50.832;4.462;2024-01-30T11:59:42;12.00;99.90
23681;DHT22;62915;50.832;4.462;2024-01-30T12:02:09;11.90;99.90
23681;DHT22;62915;50.832;4.462;2024-01-30T12:04:40;11.90;99.90
23681;DHT22;62915;50.832;4.462;2024-01-30T12:07:06;12.00;99.90
23681;DHT22;62915;50.832;4.462;2024-01-30T12:09:32;12.10;99.90
23681;DHT22;62915;50.832;4.462;2024-01-30T12:11:59;12.30;99.90
23681;DHT22;62915;50.832;4.462;2024-01-30T12:14:28;12.30;99.90
23681;DHT22;62915;50.832;4.462;2024-01-30T12:16:56;12.30;99.90
23681;DHT22;62915;50.832;4.462;2024-01-30T12:19:24;12.30;99.90
23681;DHT22;62915;50.832;4.462;2024-01-30T12:21:56;12.30;99.90
23681;DHT22;62915;50.832;4.462;2024-01-30T12:24:27;12.20;99.90
23681;DHT22;62915;50.832;4.462;2024-01-30T12:27:00;12.30;99.90
23681;DHT22;62915;50.832;4.462;2024-01-30T12:29:31;12.40;99.90
23681;DHT22;62915;50.832;4.462;2024-01-30T12:31:59;12.50;99.90
23681;DHT22;62915;50.832;4.462;2024-01-30T12:34:25;12.50;99.90
23681;DHT22;62915;50.832;4.462;2024-01-30T12:36:51;12.50;99.90
23681;DHT22;62915;50.832;4.462;2024-01-30T12:39:17;12.50;99.90
23681;DHT22;62915;50.832;4.462;2024-01-30T12:41:43;12.50;99.90
23681;DHT22;62915;50.832;4.462;2024-01-30T12:44:08;12.50;99.90
23681;DHT22;62915;50.832;4.462;2024-01-30T12:46:35;12.50;99.90
23681;DHT22;62915;50.832;4.462;2024-01-30T12:49:00;12.70;99.90
23681;DHT22;62915;50.832;4.462;2024-01-30T12:51:26;12.90;99.90
23681;DHT22;62915;50.832;4.462;2024-01-30T12:53:52;12.90;99.90
23681;DHT22;62915;50.832;4.462;2024-01-30T12:56:18;13.00;99.90
23681;DHT22;62915;50.832;4.462;2024-01-30T12:58:44;12.90;99.90
23681;DHT22;62915;50.832;4.462;2024-01-30T13:01:12;12.70;99.90
23681;DHT22;62915;50.832;4.462;2024-01-30T13:03:45;12.60;99.90
23681;DHT22;62915;50.832;4.462;2024-01-30T13:06:12;12.50;99.90
23681;DHT22;62915;50.832;4.462;2024-01-30T13:08:39;12.50;99.90
23681;DHT22;62915;50.832;4.462;2024-01-30T13:11:05;12.50;99.90
23681;DHT22;62915;50.832;4.462;2024-01-30T13:13:31;12.70;99.90
23681;DHT22;62915;50.832;4.462;2024-01-30T13:15:57;12.90;99.90
23681;DHT22;62915;50.832;4.462;2024-01-30T13:18:24;12.90;99.90
23681;DHT22;62915;50.832;4.462;2024-01-30T13:20:54;12.60;99.90
23681;DHT22;62915;50.832;4.462;2024-01-30T13:23:19;12.50;99.90
23681;DHT22;62915;50.832;4.462;2024-01-30T13:25:45;12.60;99.90
23681;DHT22;62915;50.832;4.462;2024-01-30T13:28:13;12.50;99.90
23681;DHT22;62915;50.832;4.462;2024-01-30T13:30:40;12.40;99.90
23681;DHT22;62915;50.832;4.462;2024-01-30T13:33:07;12.30;99.90
23681;DHT22;62915;50.832;4.462;2024-01-30T13:35:33;12.40;99.90
23681;DHT22;62915;50.832;4.462;2024-01-30T13:37:58;12.40;99.90
23681;DHT22;62915;50.832;4.462;2024-01-30T13:40:24;12.40;99.90
23681;DHT22;62915;50.832;4.462;2024-01-30T13:42:50;12.40;99.90
23681;DHT22;62915;50.832;4.462;2024-01-30T13:45:17;12.30;99.90
23681;DHT22;62915;50.832;4.462;2024-01-30T13:47:44;12.30;99.90
23681;DHT22;62915;50.832;4.462;2024-01-30T13:50:11;12.30;99.90
23681;DHT22;62915;50.832;4.462;2024-01-30T13:52:41;12.10;99.90
23681;DHT22;62915;50.832;4.462;2024-01-30T13:55:07;11.90;99.90
23681;DHT22;62915;50.832;4.462;2024-01-30T13:57:33;12.00;99.90
23681;DHT22;62915;50.832;4.462;2024-01-30T14:00:02;12.00;99.90
23681;DHT22;62915;50.832;4.462;2024-01-30T14:02:31;12.00;99.90
23681;DHT22;62915;50.832;4.462;2024-01-30T14:04:56;11.80;99.90
23681;DHT22;62915;50.832;4.462;2024-01-30T14:07:25;11.70;99.90
23681;DHT22;62915;50.832;4.462;2024-01-30T14:09:51;11.80;99.90
23681;DHT22;62915;50.832;4.462;2024-01-30T14:12:17;11.80;99.90
23681;DHT22;62915;50.832;4.462;2024-01-30T14:14:43;11.80;99.90
23681;DHT22;62915;50.832;4.462;2024-01-30T14:17:09;12.00;99.90
23681;DHT22;62915;50.832;4.462;2024-01-30T14:19:36;12.00;99.90
23681;DHT22;62915;50.832;4.462;2024-01-30T14:22:02;12.00;99.90
23681;DHT22;62915;50.832;4.462;2024-01-30T14:24:28;12.00;99.90
23681;DHT22;62915;50.832;4.462;2024-01-30T14:26:55;11.80;99.90
23681;DHT22;62915;50.832;4.462;2024-01-30T14:29:21;11.80;99.90
23681;DHT22;62915;50.832;4.462;2024-01-30T14:31:46;11.90;99.90
23681;DHT22;62915;50.832;4.462;2024-01-30T14:34:12;11.80;99.90
23681;DHT22;62915;50.832;4.462;2024-01-30T14:36:38;11.50;99.90
23681;DHT22;62915;50.832;4.462;2024-01-30T14:39:04;11.50;99.90
23681;DHT22;62915;50.832;4.462;2024-01-30T14:41:32;11.50;99.90
23681;DHT22;62915;50.832;4.462;2024-01-30T14:44:05;11.60;99.90
23681;DHT22;62915;50.832;4.462;2024-01-30T14:46:36;11.60;99.90
23681;DHT22;62915;50.832;4.462;2024-01-30T14:49:03;11.60;99.90
23681;DHT22;62915;50.832;4.462;2024-01-30T14:51:31;11.60;99.90
23681;DHT22;62915;50.832;4.462;2024-01-30T14:53:57;11.70;99.90
23681;DHT22;62915;50.832;4.462;2024-01-30T14:56:26;11.60;99.90
23681;DHT22;62915;50.832;4.462;2024-01-30T14:58:56;11.60;99.90
23681;DHT22;62915;50.832;4.462;2024-01-30T15:01:24;11.60;99.90
23681;DHT22;62915;50.832;4.462;2024-01-30T15:03:50;11.60;99.90
23681;DHT22;62915;50.832;4.462;2024-01-30T15:06:20;11.60;99.90
23681;DHT22;62915;50.832;4.462;2024-01-30T15:08:52;11.50;99.90
23681;DHT22;62915;50.832;4.462;2024-01-30T15:11:18;11.40;99.90
23681;DHT22;62915;50.832;4.462;2024-01-30T15:13:44;11.30;99.90
23681;DHT22;62915;50.832;4.462;2024-01-30T15:16:10;11.20;99.90
23681;DHT22;62915;50.832;4.462;2024-01-30T15:18:35;11.20;99.90
23681;DHT22;62915;50.832;4.462;2024-01-30T15:21:01;11.20;99.90
23681;DHT22;62915;50.832;4.462;2024-01-30T15:23:27;11.30;99.90
23681;DHT22;62915;50.832;4.462;2024-01-30T15:25:53;11.20;99.90
23681;DHT22;62915;50.832;4.462;2024-01-30T15:28:19;11.10;99.90
23681;DHT22;62915;50.832;4.462;2024-01-30T15:30:46;11.00;99.90
23681;DHT22;62915;50.832;4.462;2024-01-30T15:33:12;10.90;99.90